Terminal Aerodrome Forecast
Issued by NWS Sioux Falls, SD

Home | Current Version | Previous Version | Text Only | Print | Product List | Glossary On
Versions: 1 2 3 4 5 6 7 8 9 10 11 12 13
000
FTUS43 KFSD 050524
TAFFSD
TAF
KFSD 050524Z 0506/0606 15013KT P6SM SCT070 SCT250 WS018/23040KT
     FM051400 18012KT P6SM FEW120 BKN250
     FM051800 17012G22KT P6SM VCSH BKN100
     FM052100 19008KT P6SM SCT060 BKN120=

USA.gov is the U.S. government's official web portal to all federal, state and local government web resources and services.